sensor_id;sensor_type;location;lat;lon;timestamp;temperature;humidity
76333;DHT22;71254;53.010;6.508;2023-08-17T00:00:07;15.90;87.80
76333;DHT22;71254;53.010;6.508;2023-08-17T00:02:39;15.80;87.70
76333;DHT22;71254;53.010;6.508;2023-08-17T00:05:04;15.80;87.80
76333;DHT22;71254;53.010;6.508;2023-08-17T00:07:32;15.90;87.70
76333;DHT22;71254;53.010;6.508;2023-08-17T00:09:58;15.80;87.50
76333;DHT22;71254;53.010;6.508;2023-08-17T00:12:24;15.80;87.60
76333;DHT22;71254;53.010;6.508;2023-08-17T00:14:51;15.80;87.60
76333;DHT22;71254;53.010;6.508;2023-08-17T00:17:16;15.80;87.80
76333;DHT22;71254;53.010;6.508;2023-08-17T00:19:42;15.90;87.60
76333;DHT22;71254;53.010;6.508;2023-08-17T00:22:07;15.80;87.60
76333;DHT22;71254;53.010;6.508;2023-08-17T00:24:33;15.90;87.90
76333;DHT22;71254;53.010;6.508;2023-08-17T00:26:59;15.90;88.10
76333;DHT22;71254;53.010;6.508;2023-08-17T00:29:25;15.90;87.90
76333;DHT22;71254;53.010;6.508;2023-08-17T00:31:50;15.90;88.10
76333;DHT22;71254;53.010;6.508;2023-08-17T00:34:16;15.90;88.10
76333;DHT22;71254;53.010;6.508;2023-08-17T00:36:42;15.90;88.50
76333;DHT22;71254;53.010;6.508;2023-08-17T00:39:07;15.90;88.60
76333;DHT22;71254;53.010;6.508;2023-08-17T00:41:33;15.90;88.50
76333;DHT22;71254;53.010;6.508;2023-08-17T00:44:00;15.90;88.40
76333;DHT22;71254;53.010;6.508;2023-08-17T00:46:26;15.90;88.20
76333;DHT22;71254;53.010;6.508;2023-08-17T00:48:53;15.80;88.40
76333;DHT22;71254;53.010;6.508;2023-08-17T00:51:24;15.80;88.60
76333;DHT22;71254;53.010;6.508;2023-08-17T00:53:54;15.90;88.60
76333;DHT22;71254;53.010;6.508;2023-08-17T00:56:20;15.80;88.10
76333;DHT22;71254;53.010;6.508;2023-08-17T00:58:46;15.80;88.10
76333;DHT22;71254;53.010;6.508;2023-08-17T01:01:12;15.80;88.30
76333;DHT22;71254;53.010;6.508;2023-08-17T01:03:39;15.80;87.90
76333;DHT22;71254;53.010;6.508;2023-08-17T01:06:06;15.80;88.40
76333;DHT22;71254;53.010;6.508;2023-08-17T01:08:32;15.80;88.40
76333;DHT22;71254;53.010;6.508;2023-08-17T01:11:20;15.80;88.60
76333;DHT22;71254;53.010;6.508;2023-08-17T01:13:57;15.80;88.70
76333;DHT22;71254;53.010;6.508;2023-08-17T01:16:36;15.70;88.90
76333;DHT22;71254;53.010;6.508;2023-08-17T01:19:06;15.70;88.60
76333;DHT22;71254;53.010;6.508;2023-08-17T01:21:44;15.60;88.30
76333;DHT22;71254;53.010;6.508;2023-08-17T01:24:14;15.60;88.90
76333;DHT22;71254;53.010;6.508;2023-08-17T01:26:40;15.50;88.60
76333;DHT22;71254;53.010;6.508;2023-08-17T01:29:06;15.50;89.10
76333;DHT22;71254;53.010;6.508;2023-08-17T01:31:39;15.50;89.40
76333;DHT22;71254;53.010;6.508;2023-08-17T01:34:08;15.40;89.80
76333;DHT22;71254;53.010;6.508;2023-08-17T01:36:43;15.40;89.60
76333;DHT22;71254;53.010;6.508;2023-08-17T01:39:11;15.30;89.80
76333;DHT22;71254;53.010;6.508;2023-08-17T01:41:37;15.30;89.10
76333;DHT22;71254;53.010;6.508;2023-08-17T01:44:05;15.20;88.90
76333;DHT22;71254;53.010;6.508;2023-08-17T01:46:32;15.20;89.70
76333;DHT22;71254;53.010;6.508;2023-08-17T01:48:58;15.20;89.90
76333;DHT22;71254;53.010;6.508;2023-08-17T01:51:24;15.10;90.00
76333;DHT22;71254;53.010;6.508;2023-08-17T01:53:51;15.10;90.00
76333;DHT22;71254;53.010;6.508;2023-08-17T01:56:17;15.10;90.20
76333;DHT22;71254;53.010;6.508;2023-08-17T01:58:42;15.10;90.30
76333;DHT22;71254;53.010;6.508;2023-08-17T02:01:08;15.00;90.40
76333;DHT22;71254;53.010;6.508;2023-08-17T02:03:34;15.00;90.50
76333;DHT22;71254;53.010;6.508;2023-08-17T02:06:00;15.00;90.50
76333;DHT22;71254;53.010;6.508;2023-08-17T02:08:25;15.00;90.50
76333;DHT22;71254;53.010;6.508;2023-08-17T02:10:51;15.00;90.60
76333;DHT22;71254;53.010;6.508;2023-08-17T02:13:18;15.10;90.60
76333;DHT22;71254;53.010;6.508;2023-08-17T02:15:44;15.00;90.80
76333;DHT22;71254;53.010;6.508;2023-08-17T02:18:09;15.10;90.90
76333;DHT22;71254;53.010;6.508;2023-08-17T02:20:35;15.00;91.00
76333;DHT22;71254;53.010;6.508;2023-08-17T02:23:01;15.00;91.00
76333;DHT22;71254;53.010;6.508;2023-08-17T02:25:26;15.00;90.90
76333;DHT22;71254;53.010;6.508;2023-08-17T02:27:52;15.00;91.00
76333;DHT22;71254;53.010;6.508;2023-08-17T02:30:18;15.00;90.80
76333;DHT22;71254;53.010;6.508;2023-08-17T02:32:44;15.00;90.90
76333;DHT22;71254;53.010;6.508;2023-08-17T02:35:10;15.00;90.90
76333;DHT22;71254;53.010;6.508;2023-08-17T02:37:35;15.00;90.90
76333;DHT22;71254;53.010;6.508;2023-08-17T02:40:02;15.00;90.80
76333;DHT22;71254;53.010;6.508;2023-08-17T02:42:29;15.00;90.90
76333;DHT22;71254;53.010;6.508;2023-08-17T02:44:55;15.00;91.00
76333;DHT22;71254;53.010;6.508;2023-08-17T02:47:20;14.90;91.10
76333;DHT22;71254;53.010;6.508;2023-08-17T02:49:46;14.90;91.10
76333;DHT22;71254;53.010;6.508;2023-08-17T02:52:14;14.90;91.50
76333;DHT22;71254;53.010;6.508;2023-08-17T02:54:40;14.90;91.20
76333;DHT22;71254;53.010;6.508;2023-08-17T02:57:05;14.90;91.10
76333;DHT22;71254;53.010;6.508;2023-08-17T02:59:31;14.90;91.30
76333;DHT22;71254;53.010;6.508;2023-08-17T03:01:56;14.90;91.30
76333;DHT22;71254;53.010;6.508;2023-08-17T03:04:22;14.90;91.50
76333;DHT22;71254;53.010;6.508;2023-08-17T03:06:48;14.90;91.40
76333;DHT22;71254;53.010;6.508;2023-08-17T03:09:14;14.90;91.50
76333;DHT22;71254;53.010;6.508;2023-08-17T03:11:39;14.90;91.40
76333;DHT22;71254;53.010;6.508;2023-08-17T03:14:05;14.90;91.30
76333;DHT22;71254;53.010;6.508;2023-08-17T03:16:30;14.80;91.40
76333;DHT22;71254;53.010;6.508;2023-08-17T03:18:56;14.90;91.70
76333;DHT22;71254;53.010;6.508;2023-08-17T03:21:22;14.80;91.50
76333;DHT22;71254;53.010;6.508;2023-08-17T03:23:48;14.80;91.50
76333;DHT22;71254;53.010;6.508;2023-08-17T03:26:14;14.80;91.70
76333;DHT22;71254;53.010;6.508;2023-08-17T03:28:40;14.80;91.70
76333;DHT22;71254;53.010;6.508;2023-08-17T03:31:07;14.80;91.80
76333;DHT22;71254;53.010;6.508;2023-08-17T03:33:35;14.90;92.00
76333;DHT22;71254;53.010;6.508;2023-08-17T03:36:01;14.90;91.90
76333;DHT22;71254;53.010;6.508;2023-08-17T03:38:26;14.80;91.80
76333;DHT22;71254;53.010;6.508;2023-08-17T03:40:52;14.80;91.90
76333;DHT22;71254;53.010;6.508;2023-08-17T03:43:18;14.80;91.90
76333;DHT22;71254;53.010;6.508;2023-08-17T03:45:43;14.80;91.80
76333;DHT22;71254;53.010;6.508;2023-08-17T03:48:09;14.80;92.00
76333;DHT22;71254;53.010;6.508;2023-08-17T03:50:35;14.80;91.90
76333;DHT22;71254;53.010;6.508;2023-08-17T03:53:01;14.70;91.90
76333;DHT22;71254;53.010;6.508;2023-08-17T03:55:26;14.80;92.00
76333;DHT22;71254;53.010;6.508;2023-08-17T03:57:52;14.80;92.00
76333;DHT22;71254;53.010;6.508;2023-08-17T04:00:18;14.80;92.00
76333;DHT22;71254;53.010;6.508;2023-08-17T04:02:44;14.80;92.10
76333;DHT22;71254;53.010;6.508;2023-08-17T04:05:09;14.70;92.10
76333;DHT22;71254;53.010;6.508;2023-08-17T04:07:35;14.70;92.00
76333;DHT22;71254;53.010;6.508;2023-08-17T04:10:02;14.70;92.00
76333;DHT22;71254;53.010;6.508;2023-08-17T04:12:28;14.70;92.10
76333;DHT22;71254;53.010;6.508;2023-08-17T04:14:54;14.70;92.10
76333;DHT22;71254;53.010;6.508;2023-08-17T04:17:19;14.70;92.20
76333;DHT22;71254;53.010;6.508;2023-08-17T04:19:46;14.70;92.30
76333;DHT22;71254;53.010;6.508;2023-08-17T04:22:12;14.70;92.50
76333;DHT22;71254;53.010;6.508;2023-08-17T04:24:37;14.70;92.50
76333;DHT22;71254;53.010;6.508;2023-08-17T04:27:03;14.70;92.40
76333;DHT22;71254;53.010;6.508;2023-08-17T04:29:30;14.70;92.50
76333;DHT22;71254;53.010;6.508;2023-08-17T04:31:56;14.70;92.60
76333;DHT22;71254;53.010;6.508;2023-08-17T04:34:22;14.70;92.80
76333;DHT22;71254;53.010;6.508;2023-08-17T04:36:47;14.70;92.80
76333;DHT22;71254;53.010;6.508;2023-08-17T04:39:13;14.70;92.70
76333;DHT22;71254;53.010;6.508;2023-08-17T04:41:38;14.80;92.70
76333;DHT22;71254;53.010;6.508;2023-08-17T04:44:04;14.80;93.00
76333;DHT22;71254;53.010;6.508;2023-08-17T04:46:30;14.80;92.90
76333;DHT22;71254;53.010;6.508;2023-08-17T04:48:56;14.80;92.90
76333;DHT22;71254;53.010;6.508;2023-08-17T04:51:21;14.80;92.90
76333;DHT22;71254;53.010;6.508;2023-08-17T04:53:47;14.80;93.00
76333;DHT22;71254;53.010;6.508;2023-08-17T04:56:12;14.80;92.90
76333;DHT22;71254;53.010;6.508;2023-08-17T04:58:38;14.80;92.80
76333;DHT22;71254;53.010;6.508;2023-08-17T05:01:04;14.80;92.80
76333;DHT22;71254;53.010;6.508;2023-08-17T05:03:29;14.80;92.90
76333;DHT22;71254;53.010;6.508;2023-08-17T05:05:56;14.80;93.00
76333;DHT22;71254;53.010;6.508;2023-08-17T05:08:22;14.90;93.00
76333;DHT22;71254;53.010;6.508;2023-08-17T05:10:48;14.90;93.10
76333;DHT22;71254;53.010;6.508;2023-08-17T05:13:14;15.00;93.10
76333;DHT22;71254;53.010;6.508;2023-08-17T05:15:39;15.00;93.00
76333;DHT22;71254;53.010;6.508;2023-08-17T05:18:05;15.10;92.80
76333;DHT22;71254;53.010;6.508;2023-08-17T05:20:31;15.10;92.70
76333;DHT22;71254;53.010;6.508;2023-08-17T05:22:57;15.20;93.10
76333;DHT22;71254;53.010;6.508;2023-08-17T05:25:22;15.20;92.80
76333;DHT22;71254;53.010;6.508;2023-08-17T05:27:48;15.20;92.70
76333;DHT22;71254;53.010;6.508;2023-08-17T05:30:15;15.20;92.70
76333;DHT22;71254;53.010;6.508;2023-08-17T05:32:41;15.20;92.60
76333;DHT22;71254;53.010;6.508;2023-08-17T05:35:07;15.30;92.60
76333;DHT22;71254;53.010;6.508;2023-08-17T05:37:32;15.30;92.60
76333;DHT22;71254;53.010;6.508;2023-08-17T05:39:58;15.40;92.60
76333;DHT22;71254;53.010;6.508;2023-08-17T05:42:24;15.50;92.60
76333;DHT22;71254;53.010;6.508;2023-08-17T05:44:49;15.50;92.50
76333;DHT22;71254;53.010;6.508;2023-08-17T05:47:15;15.70;92.40
76333;DHT22;71254;53.010;6.508;2023-08-17T05:49:43;15.70;92.30
76333;DHT22;71254;53.010;6.508;2023-08-17T05:52:09;15.80;92.30
76333;DHT22;71254;53.010;6.508;2023-08-17T05:54:34;15.80;92.10
76333;DHT22;71254;53.010;6.508;2023-08-17T05:57:01;15.90;92.00
76333;DHT22;71254;53.010;6.508;2023-08-17T05:59:26;15.90;92.00
76333;DHT22;71254;53.010;6.508;2023-08-17T06:01:52;16.00;91.80
76333;DHT22;71254;53.010;6.508;2023-08-17T06:04:18;16.00;91.80
76333;DHT22;71254;53.010;6.508;2023-08-17T06:06:43;16.10;91.70
76333;DHT22;71254;53.010;6.508;2023-08-17T06:09:09;16.10;91.70
76333;DHT22;71254;53.010;6.508;2023-08-17T06:11:34;16.20;92.00
76333;DHT22;71254;53.010;6.508;2023-08-17T06:14:00;16.20;91.60
76333;DHT22;71254;53.010;6.508;2023-08-17T06:16:26;16.30;91.60
76333;DHT22;71254;53.010;6.508;2023-08-17T06:18:51;16.30;91.40
76333;DHT22;71254;53.010;6.508;2023-08-17T06:21:18;16.30;91.40
76333;DHT22;71254;53.010;6.508;2023-08-17T06:23:44;16.30;91.40
76333;DHT22;71254;53.010;6.508;2023-08-17T06:26:11;16.40;91.40
76333;DHT22;71254;53.010;6.508;2023-08-17T06:28:37;16.40;91.20
76333;DHT22;71254;53.010;6.508;2023-08-17T06:31:02;16.40;91.30
76333;DHT22;71254;53.010;6.508;2023-08-17T06:33:28;16.50;91.30
76333;DHT22;71254;53.010;6.508;2023-08-17T06:35:53;16.50;91.20
76333;DHT22;71254;53.010;6.508;2023-08-17T06:38:19;16.60;91.20
76333;DHT22;71254;53.010;6.508;2023-08-17T06:40:45;16.70;91.00
76333;DHT22;71254;53.010;6.508;2023-08-17T06:43:11;16.70;90.90
76333;DHT22;71254;53.010;6.508;2023-08-17T06:45:37;16.80;90.90
76333;DHT22;71254;53.010;6.508;2023-08-17T06:48:03;16.80;90.70
76333;DHT22;71254;53.010;6.508;2023-08-17T06:50:29;16.90;90.60
76333;DHT22;71254;53.010;6.508;2023-08-17T06:52:54;16.90;90.40
76333;DHT22;71254;53.010;6.508;2023-08-17T06:55:20;17.00;90.40
76333;DHT22;71254;53.010;6.508;2023-08-17T06:57:46;17.10;90.20
76333;DHT22;71254;53.010;6.508;2023-08-17T07:00:12;17.20;90.20
76333;DHT22;71254;53.010;6.508;2023-08-17T07:02:38;17.20;90.20
76333;DHT22;71254;53.010;6.508;2023-08-17T07:05:04;17.20;89.70
76333;DHT22;71254;53.010;6.508;2023-08-17T07:07:30;17.30;89.40
76333;DHT22;71254;53.010;6.508;2023-08-17T07:09:59;17.30;89.50
76333;DHT22;71254;53.010;6.508;2023-08-17T07:12:25;17.50;89.30
76333;DHT22;71254;53.010;6.508;2023-08-17T07:14:50;17.70;89.50
76333;DHT22;71254;53.010;6.508;2023-08-17T07:17:16;18.10;88.50
76333;DHT22;71254;53.010;6.508;2023-08-17T07:19:42;18.30;87.20
76333;DHT22;71254;53.010;6.508;2023-08-17T07:22:08;18.60;86.70
76333;DHT22;71254;53.010;6.508;2023-08-17T07:24:33;18.80;85.10
76333;DHT22;71254;53.010;6.508;2023-08-17T07:26:59;18.90;83.70
76333;DHT22;71254;53.010;6.508;2023-08-17T07:29:25;18.80;82.90
76333;DHT22;71254;53.010;6.508;2023-08-17T07:31:50;18.70;82.40
76333;DHT22;71254;53.010;6.508;2023-08-17T07:34:16;18.60;81.60
76333;DHT22;71254;53.010;6.508;2023-08-17T07:36:42;18.60;81.20
76333;DHT22;71254;53.010;6.508;2023-08-17T07:39:07;18.50;81.30
76333;DHT22;71254;53.010;6.508;2023-08-17T07:41:33;18.40;81.30
76333;DHT22;71254;53.010;6.508;2023-08-17T07:43:58;18.40;81.80
76333;DHT22;71254;53.010;6.508;2023-08-17T07:46:24;18.30;81.80
76333;DHT22;71254;53.010;6.508;2023-08-17T07:48:50;18.30;81.90
76333;DHT22;71254;53.010;6.508;2023-08-17T07:51:16;18.30;82.00
76333;DHT22;71254;53.010;6.508;2023-08-17T07:53:41;18.40;81.80
76333;DHT22;71254;53.010;6.508;2023-08-17T07:56:07;18.30;81.30
76333;DHT22;71254;53.010;6.508;2023-08-17T07:58:32;18.40;81.20
76333;DHT22;71254;53.010;6.508;2023-08-17T08:00:58;18.40;81.40
76333;DHT22;71254;53.010;6.508;2023-08-17T08:03:23;18.50;80.80
76333;DHT22;71254;53.010;6.508;2023-08-17T08:05:49;18.50;80.80
76333;DHT22;71254;53.010;6.508;2023-08-17T08:08:15;18.50;80.50
76333;DHT22;71254;53.010;6.508;2023-08-17T08:10:43;18.60;80.50
76333;DHT22;71254;53.010;6.508;2023-08-17T08:13:09;18.60;80.10
76333;DHT22;71254;53.010;6.508;2023-08-17T08:15:35;18.60;80.20
76333;DHT22;71254;53.010;6.508;2023-08-17T08:18:00;18.70;80.40
76333;DHT22;71254;53.010;6.508;2023-08-17T08:20:26;18.70;79.50
76333;DHT22;71254;53.010;6.508;2023-08-17T08:22:51;18.80;79.30
76333;DHT22;71254;53.010;6.508;2023-08-17T08:25:17;18.90;79.40
76333;DHT22;71254;53.010;6.508;2023-08-17T08:27:43;18.90;78.60
76333;DHT22;71254;53.010;6.508;2023-08-17T08:30:09;19.10;78.70
76333;DHT22;71254;53.010;6.508;2023-08-17T08:32:34;19.60;78.50
76333;DHT22;71254;53.010;6.508;2023-08-17T08:35:00;20.00;77.80
76333;DHT22;71254;53.010;6.508;2023-08-17T08:37:26;20.50;77.20
76333;DHT22;71254;53.010;6.508;2023-08-17T08:39:53;20.90;75.60
76333;DHT22;71254;53.010;6.508;2023-08-17T08:42:22;21.30;74.70
76333;DHT22;71254;53.010;6.508;2023-08-17T08:44:49;21.60;72.90
76333;DHT22;71254;53.010;6.508;2023-08-17T08:47:18;21.70;65.50
76333;DHT22;71254;53.010;6.508;2023-08-17T08:49:52;21.70;71.50
76333;DHT22;71254;53.010;6.508;2023-08-17T08:52:22;21.80;70.50
76333;DHT22;71254;53.010;6.508;2023-08-17T08:54:50;21.80;69.30
76333;DHT22;71254;53.010;6.508;2023-08-17T08:57:17;21.70;70.10
76333;DHT22;71254;53.010;6.508;2023-08-17T08:59:45;21.80;70.70
76333;DHT22;71254;53.010;6.508;2023-08-17T09:02:15;21.90;69.80
76333;DHT22;71254;53.010;6.508;2023-08-17T09:04:43;22.00;68.20
76333;DHT22;71254;53.010;6.508;2023-08-17T09:07:12;22.10;68.40
76333;DHT22;71254;53.010;6.508;2023-08-17T09:09:38;22.30;68.80
76333;DHT22;71254;53.010;6.508;2023-08-17T09:12:06;22.40;67.90
76333;DHT22;71254;53.010;6.508;2023-08-17T09:14:32;22.50;67.50
76333;DHT22;71254;53.010;6.508;2023-08-17T09:16:58;22.50;66.70
76333;DHT22;71254;53.010;6.508;2023-08-17T09:19:24;22.50;66.50
76333;DHT22;71254;53.010;6.508;2023-08-17T09:21:51;22.30;65.70
76333;DHT22;71254;53.010;6.508;2023-08-17T09:24:16;22.10;65.90
76333;DHT22;71254;53.010;6.508;2023-08-17T09:26:42;22.00;66.00
76333;DHT22;71254;53.010;6.508;2023-08-17T09:29:20;21.80;66.90
76333;DHT22;71254;53.010;6.508;2023-08-17T09:31:46;21.50;66.50
76333;DHT22;71254;53.010;6.508;2023-08-17T09:34:14;21.30;67.50
76333;DHT22;71254;53.010;6.508;2023-08-17T09:36:40;21.20;68.20
76333;DHT22;71254;53.010;6.508;2023-08-17T09:39:06;21.10;68.80
76333;DHT22;71254;53.010;6.508;2023-08-17T09:41:38;21.00;69.40
76333;DHT22;71254;53.010;6.508;2023-08-17T09:44:06;21.00;69.60
76333;DHT22;71254;53.010;6.508;2023-08-17T09:46:32;21.10;69.80
76333;DHT22;71254;53.010;6.508;2023-08-17T09:48:57;21.00;69.60
76333;DHT22;71254;53.010;6.508;2023-08-17T09:51:24;21.10;69.40
76333;DHT22;71254;53.010;6.508;2023-08-17T09:53:52;21.10;69.50
76333;DHT22;71254;53.010;6.508;2023-08-17T09:56:22;21.20;69.80
76333;DHT22;71254;53.010;6.508;2023-08-17T09:58:49;21.40;70.10
76333;DHT22;71254;53.010;6.508;2023-08-17T10:01:15;21.50;69.10
76333;DHT22;71254;53.010;6.508;2023-08-17T10:03:44;21.60;69.10
76333;DHT22;71254;53.010;6.508;2023-08-17T10:06:18;21.60;69.70
76333;DHT22;71254;53.010;6.508;2023-08-17T10:08:47;21.70;69.20
76333;DHT22;71254;53.010;6.508;2023-08-17T10:11:19;21.70;69.10
76333;DHT22;71254;53.010;6.508;2023-08-17T10:13:52;21.60;68.70
76333;DHT22;71254;53.010;6.508;2023-08-17T10:16:28;21.80;68.20
76333;DHT22;71254;53.010;6.508;2023-08-17T10:18:59;22.10;68.10
76333;DHT22;71254;53.010;6.508;2023-08-17T10:21:31;22.40;67.90
76333;DHT22;71254;53.010;6.508;2023-08-17T10:24:02;22.70;67.20
76333;DHT22;71254;53.010;6.508;2023-08-17T10:26:29;23.00;67.30
76333;DHT22;71254;53.010;6.508;2023-08-17T10:28:55;23.30;66.40
76333;DHT22;71254;53.010;6.508;2023-08-17T10:31:24;23.50;64.90
76333;DHT22;71254;53.010;6.508;2023-08-17T10:33:50;23.50;64.70
76333;DHT22;71254;53.010;6.508;2023-08-17T10:36:17;23.40;64.40
76333;DHT22;71254;53.010;6.508;2023-08-17T10:38:43;23.10;64.10
76333;DHT22;71254;53.010;6.508;2023-08-17T10:41:13;23.00;64.70
76333;DHT22;71254;53.010;6.508;2023-08-17T10:43:59;22.80;65.00
76333;DHT22;71254;53.010;6.508;2023-08-17T10:46:35;22.60;64.40
76333;DHT22;71254;53.010;6.508;2023-08-17T10:49:05;22.50;65.70
76333;DHT22;71254;53.010;6.508;2023-08-17T10:51:34;22.30;65.40
76333;DHT22;71254;53.010;6.508;2023-08-17T10:54:02;22.20;65.90
76333;DHT22;71254;53.010;6.508;2023-08-17T10:56:29;22.10;66.50
76333;DHT22;71254;53.010;6.508;2023-08-17T10:58:59;22.00;67.00
76333;DHT22;71254;53.010;6.508;2023-08-17T11:01:35;22.00;67.40
76333;DHT22;71254;53.010;6.508;2023-08-17T11:04:12;21.90;67.40
76333;DHT22;71254;53.010;6.508;2023-08-17T11:06:43;21.90;67.80
76333;DHT22;71254;53.010;6.508;2023-08-17T11:09:09;21.90;68.20
76333;DHT22;71254;53.010;6.508;2023-08-17T11:11:34;21.90;68.20
76333;DHT22;71254;53.010;6.508;2023-08-17T11:14:00;21.90;68.30
76333;DHT22;71254;53.010;6.508;2023-08-17T11:16:26;21.90;68.30
76333;DHT22;71254;53.010;6.508;2023-08-17T11:18:52;21.90;68.80
76333;DHT22;71254;53.010;6.508;2023-08-17T11:21:18;22.10;69.50
76333;DHT22;71254;53.010;6.508;2023-08-17T11:23:44;22.40;69.40
76333;DHT22;71254;53.010;6.508;2023-08-17T11:26:10;22.30;68.30
76333;DHT22;71254;53.010;6.508;2023-08-17T11:28:36;22.30;68.10
76333;DHT22;71254;53.010;6.508;2023-08-17T11:31:04;22.20;68.30
76333;DHT22;71254;53.010;6.508;2023-08-17T11:33:31;22.10;68.70
76333;DHT22;71254;53.010;6.508;2023-08-17T11:35:57;22.10;68.70
76333;DHT22;71254;53.010;6.508;2023-08-17T11:38:23;22.10;68.40
76333;DHT22;71254;53.010;6.508;2023-08-17T11:40:49;22.00;68.70
76333;DHT22;71254;53.010;6.508;2023-08-17T11:43:16;22.00;69.00
76333;DHT22;71254;53.010;6.508;2023-08-17T11:45:41;22.00;69.30
76333;DHT22;71254;53.010;6.508;2023-08-17T11:48:07;21.90;69.50
76333;DHT22;71254;53.010;6.508;2023-08-17T11:50:35;21.90;69.70
76333;DHT22;71254;53.010;6.508;2023-08-17T11:53:00;21.80;69.80
76333;DHT22;71254;53.010;6.508;2023-08-17T11:55:26;21.90;69.60
76333;DHT22;71254;53.010;6.508;2023-08-17T11:57:52;21.90;69.60
76333;DHT22;71254;53.010;6.508;2023-08-17T12:00:20;22.00;69.40
76333;DHT22;71254;53.010;6.508;2023-08-17T12:02:53;22.20;69.60
76333;DHT22;71254;53.010;6.508;2023-08-17T12:05:23;22.50;69.60
76333;DHT22;71254;53.010;6.508;2023-08-17T12:07:55;22.60;68.70
76333;DHT22;71254;53.010;6.508;2023-08-17T12:10:21;22.60;68.50
76333;DHT22;71254;53.010;6.508;2023-08-17T12:12:49;22.60;68.20
76333;DHT22;71254;53.010;6.508;2023-08-17T12:15:18;22.70;67.90
76333;DHT22;71254;53.010;6.508;2023-08-17T12:17:46;22.70;67.70
76333;DHT22;71254;53.010;6.508;2023-08-17T12:20:16;22.80;67.70
76333;DHT22;71254;53.010;6.508;2023-08-17T12:22:42;22.90;67.80
76333;DHT22;71254;53.010;6.508;2023-08-17T12:25:09;23.00;67.60
76333;DHT22;71254;53.010;6.508;2023-08-17T12:27:35;23.00;67.40
76333;DHT22;71254;53.010;6.508;2023-08-17T12:30:01;22.90;67.60
76333;DHT22;71254;53.010;6.508;2023-08-17T12:32:26;22.90;67.70
76333;DHT22;71254;53.010;6.508;2023-08-17T12:34:52;23.00;68.30
76333;DHT22;71254;53.010;6.508;2023-08-17T12:37:19;23.00;67.30
76333;DHT22;71254;53.010;6.508;2023-08-17T12:39:46;22.90;67.20
76333;DHT22;71254;53.010;6.508;2023-08-17T12:42:13;22.80;67.90
76333;DHT22;71254;53.010;6.508;2023-08-17T12:44:41;22.80;67.90
76333;DHT22;71254;53.010;6.508;2023-08-17T12:47:07;22.70;68.10
76333;DHT22;71254;53.010;6.508;2023-08-17T12:49:32;22.70;67.80
76333;DHT22;71254;53.010;6.508;2023-08-17T12:51:58;22.60;68.20
76333;DHT22;71254;53.010;6.508;2023-08-17T12:54:23;22.50;68.40
76333;DHT22;71254;53.010;6.508;2023-08-17T12:56:49;22.50;68.90
76333;DHT22;71254;53.010;6.508;2023-08-17T12:59:15;22.50;68.90
76333;DHT22;71254;53.010;6.508;2023-08-17T13:01:40;22.50;69.50
76333;DHT22;71254;53.010;6.508;2023-08-17T13:04:07;22.50;69.50
76333;DHT22;71254;53.010;6.508;2023-08-17T13:06:32;22.40;69.40
76333;DHT22;71254;53.010;6.508;2023-08-17T13:08:58;22.50;69.40
76333;DHT22;71254;53.010;6.508;2023-08-17T13:11:24;22.60;69.40
76333;DHT22;71254;53.010;6.508;2023-08-17T13:13:49;22.60;69.30
76333;DHT22;71254;53.010;6.508;2023-08-17T13:16:15;22.50;69.40
76333;DHT22;71254;53.010;6.508;2023-08-17T13:18:40;22.60;69.70
76333;DHT22;71254;53.010;6.508;2023-08-17T13:21:06;22.60;69.20
76333;DHT22;71254;53.010;6.508;2023-08-17T13:23:32;22.60;69.20
76333;DHT22;71254;53.010;6.508;2023-08-17T13:25:58;22.60;69.50
76333;DHT22;71254;53.010;6.508;2023-08-17T13:28:23;22.60;69.40
76333;DHT22;71254;53.010;6.508;2023-08-17T13:30:49;22.60;69.60
76333;DHT22;71254;53.010;6.508;2023-08-17T13:33:15;22.60;69.70
76333;DHT22;71254;53.010;6.508;2023-08-17T13:35:42;22.60;69.90
76333;DHT22;71254;53.010;6.508;2023-08-17T13:38:08;22.60;69.80
76333;DHT22;71254;53.010;6.508;2023-08-17T13:40:34;22.60;69.90
76333;DHT22;71254;53.010;6.508;2023-08-17T13:43:01;22.70;69.40
76333;DHT22;71254;53.010;6.508;2023-08-17T13:45:28;22.60;69.10
76333;DHT22;71254;53.010;6.508;2023-08-17T13:47:54;22.60;69.30
76333;DHT22;71254;53.010;6.508;2023-08-17T13:50:20;22.60;69.90
76333;DHT22;71254;53.010;6.508;2023-08-17T13:52:46;22.70;70.00
76333;DHT22;71254;53.010;6.508;2023-08-17T13:55:12;22.70;70.00
76333;DHT22;71254;53.010;6.508;2023-08-17T13:57:38;22.60;69.80
76333;DHT22;71254;53.010;6.508;2023-08-17T14:00:04;22.50;69.60
76333;DHT22;71254;53.010;6.508;2023-08-17T14:02:30;22.50;69.90
76333;DHT22;71254;53.010;6.508;2023-08-17T14:04:56;22.50;69.70
76333;DHT22;71254;53.010;6.508;2023-08-17T14:07:21;22.40;69.80
76333;DHT22;71254;53.010;6.508;2023-08-17T14:09:47;22.30;69.90
76333;DHT22;71254;53.010;6.508;2023-08-17T14:12:12;22.20;70.30
76333;DHT22;71254;53.010;6.508;2023-08-17T14:14:38;22.20;70.40
76333;DHT22;71254;53.010;6.508;2023-08-17T14:17:04;22.10;70.20
76333;DHT22;71254;53.010;6.508;2023-08-17T14:19:29;22.00;70.20
76333;DHT22;71254;53.010;6.508;2023-08-17T14:21:56;21.90;71.00
76333;DHT22;71254;53.010;6.508;2023-08-17T14:24:21;21.90;71.30
76333;DHT22;71254;53.010;6.508;2023-08-17T14:26:47;21.90;71.40
76333;DHT22;71254;53.010;6.508;2023-08-17T14:29:13;21.90;71.40
76333;DHT22;71254;53.010;6.508;2023-08-17T14:31:38;21.80;71.50
76333;DHT22;71254;53.010;6.508;2023-08-17T14:34:04;21.70;71.90
76333;DHT22;71254;53.010;6.508;2023-08-17T14:36:29;21.80;71.90
76333;DHT22;71254;53.010;6.508;2023-08-17T14:38:55;21.80;72.30
76333;DHT22;71254;53.010;6.508;2023-08-17T14:41:21;21.80;72.40
76333;DHT22;71254;53.010;6.508;2023-08-17T14:43:46;21.80;72.30
76333;DHT22;71254;53.010;6.508;2023-08-17T14:46:12;21.80;72.40
76333;DHT22;71254;53.010;6.508;2023-08-17T14:48:37;21.90;72.60
76333;DHT22;71254;53.010;6.508;2023-08-17T14:51:03;21.90;72.60
76333;DHT22;71254;53.010;6.508;2023-08-17T14:53:29;22.00;72.70
76333;DHT22;71254;53.010;6.508;2023-08-17T14:55:54;21.90;72.70
76333;DHT22;71254;53.010;6.508;2023-08-17T14:58:21;22.00;72.40
76333;DHT22;71254;53.010;6.508;2023-08-17T15:00:46;21.80;72.50
76333;DHT22;71254;53.010;6.508;2023-08-17T15:03:12;21.80;72.60
76333;DHT22;71254;53.010;6.508;2023-08-17T15:05:38;21.90;72.50
76333;DHT22;71254;53.010;6.508;2023-08-17T15:08:04;21.80;72.40
76333;DHT22;71254;53.010;6.508;2023-08-17T15:10:29;21.80;72.60
76333;DHT22;71254;53.010;6.508;2023-08-17T15:12:55;21.70;72.90
76333;DHT22;71254;53.010;6.508;2023-08-17T15:15:21;21.70;73.20
76333;DHT22;71254;53.010;6.508;2023-08-17T15:17:46;21.60;73.30
76333;DHT22;71254;53.010;6.508;2023-08-17T15:20:12;21.70;73.80
76333;DHT22;71254;53.010;6.508;2023-08-17T15:22:37;21.60;73.80
76333;DHT22;71254;53.010;6.508;2023-08-17T15:25:03;21.50;73.70